Time;durP1;ratioP1;P1;durP2;ratioP2;P2;SDS_P1;SDS_P2;PMS_P1;PMS_P2;Temp;Humidity;BMP_temperature;BMP_pressure;BME280_temperature;BME280_humidity;BME280_pressure;Samples;Min_cycle;Max_cycle;Signal;HPM_P1;HPM_P2
2021/11/26 00:01:20;;;;;;;8.48;4.90;;;;;;;;;;5095888;28;20036;-75
2021/11/26 00:03:46;;;;;;;9.52;3.53;;;;;;;;;;5096058;28;20410;-75
2021/11/26 00:06:12;;;;;;;12.45;4.82;;;;;;;;;;5095900;28;20024;-75
2021/11/26 00:08:39;;;;;;;11.43;3.90;;;;;;;;;;5095712;28;20060;-74
2021/11/26 00:11:05;;;;;;;8.18;4.38;;;;;;;;;;5095265;28;20021;-75
2021/11/26 00:13:36;;;;;;;16.08;5.00;;;;;;;;;;5095773;28;20047;-75
2021/11/26 00:16:08;;;;;;;8.25;3.63;;;;;;;;;;5095766;28;20073;-75
2021/11/26 00:18:41;;;;;;;11.98;4.30;;;;;;;;;;5095617;28;20050;-75
2021/11/26 00:21:07;;;;;;;8.57;4.38;;;;;;;;;;5095656;28;20020;-74
2021/11/26 00:23:33;;;;;;;15.48;4.28;;;;;;;;;;5095723;28;20032;-75
2021/11/26 00:25:59;;;;;;;11.05;3.63;;;;;;;;;;5078872;28;20035;-75
2021/11/26 00:28:25;;;;;;;11.30;3.20;;;;;;;;;;5095471;28;20417;-75
2021/11/26 00:30:53;;;;;;;13.98;5.35;;;;;;;;;;5077937;28;20095;-75
2021/11/26 00:33:19;;;;;;;11.23;3.67;;;;;;;;;;5091270;28;20026;-75
2021/11/26 00:35:46;;;;;;;8.50;3.58;;;;;;;;;;5095087;28;20039;-75
2021/11/26 00:38:12;;;;;;;10.40;4.03;;;;;;;;;;5095381;28;20036;-76
2021/11/26 00:40:38;;;;;;;8.93;3.55;;;;;;;;;;5095571;28;20024;-75
2021/11/26 00:43:04;;;;;;;6.10;3.00;;;;;;;;;;5094779;28;20054;-75
2021/11/26 00:45:31;;;;;;;13.07;4.15;;;;;;;;;;5077544;28;20099;-75
2021/11/26 00:47:57;;;;;;;8.10;2.97;;;;;;;;;;5095494;28;20020;-75
2021/11/26 00:50:23;;;;;;;11.05;3.22;;;;;;;;;;5094912;28;20036;-75
2021/11/26 00:52:49;;;;;;;4.40;2.85;;;;;;;;;;5095087;28;20474;-75
2021/11/26 00:55:17;;;;;;;8.65;3.63;;;;;;;;;;5078255;28;20059;-75
2021/11/26 00:57:43;;;;;;;11.43;3.45;;;;;;;;;;5095138;28;20020;-74
2021/11/26 01:00:11;;;;;;;7.80;3.17;;;;;;;;;;5094722;28;20028;-76
2021/11/26 01:02:38;;;;;;;13.50;3.80;;;;;;;;;;5084319;28;20470;-76
2021/11/26 01:05:05;;;;;;;8.88;3.10;;;;;;;;;;5094783;28;20083;-76
2021/11/26 01:07:31;;;;;;;9.30;2.92;;;;;;;;;;5094568;28;20017;-75
2021/11/26 01:09:57;;;;;;;9.07;3.22;;;;;;;;;;5093636;28;20024;-75
2021/11/26 01:12:23;;;;;;;6.53;3.45;;;;;;;;;;5084693;28;20031;-76
2021/11/26 01:14:50;;;;;;;16.98;4.75;;;;;;;;;;5094835;28;20064;-75
2021/11/26 01:17:16;;;;;;;8.93;4.30;;;;;;;;;;5094480;28;20024;-75
2021/11/26 01:19:43;;;;;;;14.65;5.40;;;;;;;;;;5094127;28;20028;-75
2021/11/26 01:22:09;;;;;;;14.13;4.57;;;;;;;;;;5094639;28;20109;-75
2021/11/26 01:24:35;;;;;;;11.23;3.90;;;;;;;;;;5094738;28;20031;-75
2021/11/26 01:27:06;;;;;;;8.68;3.60;;;;;;;;;;5093974;28;20036;-75
2021/11/26 01:29:32;;;;;;;14.60;5.25;;;;;;;;;;5088877;28;20077;-74
2021/11/26 01:31:58;;;;;;;7.85;3.70;;;;;;;;;;5094518;28;20111;-75
2021/11/26 01:34:24;;;;;;;9.88;3.72;;;;;;;;;;5094264;28;20081;-75
2021/11/26 01:36:50;;;;;;;12.63;3.63;;;;;;;;;;5094041;28;20017;-75
2021/11/26 01:39:16;;;;;;;5.57;3.00;;;;;;;;;;5094087;28;20065;-74
2021/11/26 01:41:43;;;;;;;6.65;3.60;;;;;;;;;;5094058;28;20027;-75
2021/11/26 01:44:09;;;;;;;10.43;4.10;;;;;;;;;;5093869;28;20398;-75
2021/11/26 01:46:43;;;;;;;11.65;3.30;;;;;;;;;;5093703;28;20394;-75
2021/11/26 01:49:09;;;;;;;9.48;3.38;;;;;;;;;;5093757;28;20107;-75
2021/11/26 01:51:35;;;;;;;8.18;2.72;;;;;;;;;;5091518;28;20576;-76
2021/11/26 01:54:01;;;;;;;8.30;2.42;;;;;;;;;;5093951;28;20470;-75
2021/11/26 01:56:28;;;;;;;5.55;2.50;;;;;;;;;;5093919;28;20048;-75
2021/11/26 01:58:54;;;;;;;3.55;2.42;;;;;;;;;;5093891;28;20027;-75
2021/11/26 02:01:20;;;;;;;3.88;2.13;;;;;;;;;;5093809;28;20054;-75
2021/11/26 02:03:46;;;;;;;6.82;2.17;;;;;;;;;;5093738;28;20028;-74
2021/11/26 02:06:13;;;;;;;6.40;2.78;;;;;;;;;;5093346;28;20113;-75
2021/11/26 02:08:39;;;;;;;5.97;2.60;;;;;;;;;;5085546;28;20133;-74
2021/11/26 02:11:05;;;;;;;5.32;2.50;;;;;;;;;;5078347;28;20386;-75
2021/11/26 02:13:31;;;;;;;6.35;2.40;;;;;;;;;;5093574;28;20432;-75
2021/11/26 02:16:02;;;;;;;5.72;2.65;;;;;;;;;;5093341;28;20073;-75
2021/11/26 02:18:28;;;;;;;4.13;2.50;;;;;;;;;;5093908;28;20016;-74
2021/11/26 02:20:54;;;;;;;6.18;2.42;;;;;;;;;;5093190;28;20028;-75
2021/11/26 02:23:20;;;;;;;6.00;2.75;;;;;;;;;;5093331;28;20301;-75
2021/11/26 02:25:46;;;;;;;9.05;2.72;;;;;;;;;;5093567;28;20385;-75
2021/11/26 02:28:14;;;;;;;6.28;2.65;;;;;;;;;;5092974;28;20464;-75
2021/11/26 02:30:41;;;;;;;9.38;2.60;;;;;;;;;;5093188;28;20028;-75
2021/11/26 02:33:11;;;;;;;8.38;2.38;;;;;;;;;;5093031;28;20386;-75
2021/11/26 02:35:38;;;;;;;8.13;2.30;;;;;;;;;;5093177;28;20378;-76
2021/11/26 02:38:05;;;;;;;4.75;2.00;;;;;;;;;;5092955;28;20059;-76
2021/11/26 02:40:32;;;;;;;6.00;3.00;;;;;;;;;;5092745;28;20031;-75
2021/11/26 02:42:59;;;;;;;6.32;2.13;;;;;;;;;;5092955;28;20552;-75
2021/11/26 02:45:26;;;;;;;6.15;2.67;;;;;;;;;;5092495;28;20035;-74
2021/11/26 02:47:53;;;;;;;7.28;2.92;;;;;;;;;;5093035;28;20086;-75
2021/11/26 02:50:20;;;;;;;5.03;2.53;;;;;;;;;;5092904;28;20024;-75
2021/11/26 02:52:47;;;;;;;5.80;1.92;;;;;;;;;;5092431;28;20618;-75
2021/11/26 02:55:17;;;;;;;4.80;2.58;;;;;;;;;;5089131;28;20061;-75
2021/11/26 02:57:44;;;;;;;3.42;2.55;;;;;;;;;;5092795;28;20024;-75
2021/11/26 03:00:11;;;;;;;5.80;2.30;;;;;;;;;;5092715;28;20470;-75
2021/11/26 03:02:37;;;;;;;9.85;2.67;;;;;;;;;;5092348;28;20032;-75
2021/11/26 03:05:03;;;;;;;5.10;2.53;;;;;;;;;;5092191;28;20024;-75
2021/11/26 03:07:29;;;;;;;6.28;2.60;;;;;;;;;;5088162;28;20078;-75
2021/11/26 03:09:56;;;;;;;9.27;2.63;;;;;;;;;;5092390;28;20470;-75
2021/11/26 03:12:22;;;;;;;7.25;2.17;;;;;;;;;;5092649;28;20112;-74
2021/11/26 03:14:48;;;;;;;7.00;2.78;;;;;;;;;;5092399;28;20478;-74
2021/11/26 03:17:15;;;;;;;10.15;3.05;;;;;;;;;;5092131;28;20027;-76
2021/11/26 03:19:42;;;;;;;10.05;3.22;;;;;;;;;;5092531;28;20020;-75
2021/11/26 03:22:08;;;;;;;4.68;2.55;;;;;;;;;;5092383;28;20440;-77
2021/11/26 03:24:34;;;;;;;7.63;2.38;;;;;;;;;;5092182;28;20059;-75
2021/11/26 03:27:00;;;;;;;8.15;2.75;;;;;;;;;;5092577;28;20032;-75
2021/11/26 03:29:26;;;;;;;8.07;3.35;;;;;;;;;;5091691;28;20035;-74
2021/11/26 03:31:52;;;;;;;5.75;2.35;;;;;;;;;;5092467;28;20040;-75
2021/11/26 03:34:18;;;;;;;8.13;2.47;;;;;;;;;;5095741;28;20063;-75
2021/11/26 03:36:44;;;;;;;10.80;2.85;;;;;;;;;;5096991;28;20024;-75
2021/11/26 03:39:10;;;;;;;8.57;2.47;;;;;;;;;;5096090;28;20607;-75
2021/11/26 03:41:36;;;;;;;6.68;2.70;;;;;;;;;;5096765;28;20052;-75
2021/11/26 03:44:03;;;;;;;12.00;2.85;;;;;;;;;;5096495;28;20411;-75
2021/11/26 03:46:29;;;;;;;7.10;2.45;;;;;;;;;;5096119;28;20024;-76
2021/11/26 03:48:55;;;;;;;9.23;2.78;;;;;;;;;;5096488;28;20099;-75
2021/11/26 03:51:21;;;;;;;7.07;2.53;;;;;;;;;;5096360;28;20031;-75
2021/11/26 03:53:47;;;;;;;11.05;3.00;;;;;;;;;;5095870;28;20031;-76
2021/11/26 03:56:13;;;;;;;5.50;2.15;;;;;;;;;;5096221;28;20081;-75
2021/11/26 03:58:39;;;;;;;13.40;2.75;;;;;;;;;;5096171;28;20036;-75
2021/11/26 04:01:05;;;;;;;7.18;2.40;;;;;;;;;;5097373;28;20420;-75
2021/11/26 04:03:31;;;;;;;7.72;2.38;;;;;;;;;;5096317;28;20020;-75
2021/11/26 04:05:57;;;;;;;8.77;2.35;;;;;;;;;;5096462;28;20478;-75
2021/11/26 04:08:23;;;;;;;11.38;3.58;;;;;;;;;;5096252;28;20390;-75
2021/11/26 04:10:49;;;;;;;11.38;3.00;;;;;;;;;;5095990;28;20039;-76
2021/11/26 04:13:17;;;;;;;4.55;2.17;;;;;;;;;;5096160;28;20382;-74
2021/11/26 04:15:44;;;;;;;7.10;2.05;;;;;;;;;;5096942;28;20020;-76
2021/11/26 04:18:10;;;;;;;5.60;2.40;;;;;;;;;;5097675;28;20028;-75
2021/11/26 04:20:36;;;;;;;5.80;2.30;;;;;;;;;;5099234;28;20028;-75
2021/11/26 04:23:03;;;;;;;7.47;2.38;;;;;;;;;;5100791;28;20110;-74
2021/11/26 04:25:29;;;;;;;5.10;2.45;;;;;;;;;;5101247;28;20054;-74
2021/11/26 04:27:56;;;;;;;16.08;3.80;;;;;;;;;;5099855;28;20024;-74
2021/11/26 04:30:23;;;;;;;6.10;2.50;;;;;;;;;;5099818;28;20061;-75
2021/11/26 04:32:49;;;;;;;9.57;2.78;;;;;;;;;;5103894;28;20040;-76
2021/11/26 04:35:15;;;;;;;8.88;3.22;;;;;;;;;;5101804;28;20031;-74
2021/11/26 04:37:42;;;;;;;5.35;2.20;;;;;;;;;;5084407;28;20023;-74
2021/11/26 04:40:10;;;;;;;5.93;2.55;;;;;;;;;;5099727;28;20024;-75
2021/11/26 04:42:37;;;;;;;5.35;2.55;;;;;;;;;;5099212;28;20071;-75
2021/11/26 04:45:03;;;;;;;6.03;2.42;;;;;;;;;;5098940;28;20028;-74
2021/11/26 04:47:29;;;;;;;6.07;2.40;;;;;;;;;;5089671;28;20051;-76
2021/11/26 04:49:55;;;;;;;7.22;2.28;;;;;;;;;;5099139;28;20028;-74
2021/11/26 04:52:21;;;;;;;8.68;2.90;;;;;;;;;;5099452;28;20052;-76
2021/11/26 04:54:47;;;;;;;7.45;2.55;;;;;;;;;;5099686;28;20032;-73
2021/11/26 04:57:14;;;;;;;7.03;2.65;;;;;;;;;;5100175;28;20085;-76
2021/11/26 04:59:40;;;;;;;7.82;2.30;;;;;;;;;;5099682;28;20031;-75
2021/11/26 05:02:06;;;;;;;7.60;2.40;;;;;;;;;;5100655;28;20024;-75
2021/11/26 05:04:32;;;;;;;7.00;2.53;;;;;;;;;;5093258;28;20028;-73
2021/11/26 05:07:00;;;;;;;6.00;2.08;;;;;;;;;;5102434;28;20030;-75
2021/11/26 05:09:26;;;;;;;6.07;2.53;;;;;;;;;;5100469;28;20020;-73
2021/11/26 05:11:54;;;;;;;5.35;1.65;;;;;;;;;;5079086;28;20028;-76
2021/11/26 05:14:22;;;;;;;5.30;2.13;;;;;;;;;;5098507;28;20024;-75
2021/11/26 05:16:48;;;;;;;2.85;1.73;;;;;;;;;;5097150;28;20583;-76
2021/11/26 05:19:14;;;;;;;2.40;1.55;;;;;;;;;;5097250;28;20024;-76
2021/11/26 05:21:40;;;;;;;5.25;1.83;;;;;;;;;;5097902;28;20077;-76
2021/11/26 05:24:06;;;;;;;6.80;1.80;;;;;;;;;;5097613;28;20031;-76
2021/11/26 05:26:33;;;;;;;3.03;1.98;;;;;;;;;;5097889;28;20032;-76
2021/11/26 05:28:59;;;;;;;5.00;2.33;;;;;;;;;;5097084;28;20028;-76
2021/11/26 05:31:25;;;;;;;1.70;1.60;;;;;;;;;;5097410;28;20085;-77
2021/11/26 05:33:51;;;;;;;7.10;1.60;;;;;;;;;;5097557;28;20028;-74
2021/11/26 05:36:18;;;;;;;3.85;2.00;;;;;;;;;;5097451;28;20027;-75
2021/11/26 05:38:44;;;;;;;3.65;2.08;;;;;;;;;;5097245;28;20021;-76
2021/11/26 05:41:10;;;;;;;6.15;1.83;;;;;;;;;;5097714;28;20362;-75
2021/11/26 05:43:36;;;;;;;6.55;1.92;;;;;;;;;;5097500;28;20059;-75
2021/11/26 05:46:02;;;;;;;13.27;3.65;;;;;;;;;;5097744;28;20032;-76
2021/11/26 05:48:28;;;;;;;4.85;1.90;;;;;;;;;;5098060;28;20039;-74
2021/11/26 05:50:54;;;;;;;4.53;2.20;;;;;;;;;;5098145;28;20060;-75
2021/11/26 05:53:20;;;;;;;7.57;2.47;;;;;;;;;;5098109;28;20069;-77
2021/11/26 05:55:47;;;;;;;6.40;2.33;;;;;;;;;;5097231;28;20028;-75
2021/11/26 05:58:13;;;;;;;6.75;2.85;;;;;;;;;;5098021;28;20073;-76
2021/11/26 06:00:39;;;;;;;9.80;3.75;;;;;;;;;;5098395;28;20024;-76
2021/11/26 06:03:05;;;;;;;5.15;1.92;;;;;;;;;;5097053;28;20066;-76
2021/11/26 06:05:31;;;;;;;5.70;2.00;;;;;;;;;;5097760;28;20085;-75
2021/11/26 06:07:57;;;;;;;11.15;2.17;;;;;;;;;;5096388;28;20059;-77
2021/11/26 06:10:24;;;;;;;6.10;2.35;;;;;;;;;;5096078;28;20114;-74
2021/11/26 06:12:51;;;;;;;7.75;3.28;;;;;;;;;;5096826;28;20024;-76
2021/11/26 06:15:19;;;;;;;4.88;2.17;;;;;;;;;;5096082;28;20028;-75
2021/11/26 06:17:45;;;;;;;11.98;2.55;;;;;;;;;;5096625;28;20031;-76
2021/11/26 06:20:12;;;;;;;7.32;2.15;;;;;;;;;;5096542;28;20020;-76
2021/11/26 06:22:40;;;;;;;8.35;2.53;;;;;;;;;;5099784;28;20416;-74
2021/11/26 06:25:07;;;;;;;10.65;3.08;;;;;;;;;;5082306;28;20052;-76
2021/11/26 06:27:33;;;;;;;5.05;2.25;;;;;;;;;;5094843;28;20024;-74
2021/11/26 06:29:59;;;;;;;8.82;2.10;;;;;;;;;;5094003;28;20027;-76
2021/11/26 06:32:25;;;;;;;10.60;2.47;;;;;;;;;;5093411;28;20024;-76
2021/11/26 06:34:52;;;;;;;8.93;2.67;;;;;;;;;;5093982;28;20047;-75
2021/11/26 06:37:18;;;;;;;9.60;2.67;;;;;;;;;;5094047;28;20038;-76
2021/11/26 06:39:44;;;;;;;10.88;2.63;;;;;;;;;;5093773;28;20020;-76
2021/11/26 06:42:10;;;;;;;12.10;2.53;;;;;;;;;;5078155;28;20444;-76
2021/11/26 06:44:36;;;;;;;14.48;2.90;;;;;;;;;;5094233;28;20039;-75
2021/11/26 06:47:03;;;;;;;10.50;2.60;;;;;;;;;;5094078;28;20036;-75
2021/11/26 06:49:29;;;;;;;5.93;2.60;;;;;;;;;;5078795;28;20028;-76
2021/11/26 06:51:55;;;;;;;6.35;1.92;;;;;;;;;;5094442;28;20036;-76
2021/11/26 06:54:21;;;;;;;11.05;3.08;;;;;;;;;;5094748;28;20102;-76
2021/11/26 06:56:47;;;;;;;11.60;2.40;;;;;;;;;;5095074;28;20032;-76
2021/11/26 06:59:13;;;;;;;11.15;3.15;;;;;;;;;;5094289;28;20517;-76
2021/11/26 07:01:40;;;;;;;4.70;2.40;;;;;;;;;;5093996;28;20048;-74
2021/11/26 07:04:08;;;;;;;9.90;2.92;;;;;;;;;;5094467;28;20020;-76
2021/11/26 07:06:34;;;;;;;9.77;2.85;;;;;;;;;;5094589;28;20107;-75
2021/11/26 07:09:01;;;;;;;5.47;2.40;;;;;;;;;;5094063;28;20097;-75
2021/11/26 07:11:27;;;;;;;10.00;3.50;;;;;;;;;;5094099;28;20035;-76
2021/11/26 07:13:53;;;;;;;10.18;3.20;;;;;;;;;;5094636;28;20409;-75
2021/11/26 07:16:19;;;;;;;6.10;3.40;;;;;;;;;;5082299;28;20478;-75
2021/11/26 07:18:45;;;;;;;11.65;3.90;;;;;;;;;;5093252;28;20028;-76
2021/11/26 07:21:11;;;;;;;11.50;2.85;;;;;;;;;;5093289;28;20024;-75
2021/11/26 07:23:37;;;;;;;8.63;2.65;;;;;;;;;;5094230;28;20055;-76
2021/11/26 07:26:03;;;;;;;11.05;3.50;;;;;;;;;;5094028;28;20041;-76
2021/11/26 07:28:29;;;;;;;9.45;3.22;;;;;;;;;;5093908;28;20032;-76
2021/11/26 07:30:56;;;;;;;15.93;3.22;;;;;;;;;;5093810;28;20101;-76
2021/11/26 07:33:22;;;;;;;9.05;2.75;;;;;;;;;;5093518;28;20032;-75
2021/11/26 07:35:48;;;;;;;15.52;4.03;;;;;;;;;;5093844;28;20025;-75
2021/11/26 07:38:14;;;;;;;9.55;2.88;;;;;;;;;;5092802;28;20029;-76
2021/11/26 07:40:40;;;;;;;16.13;2.97;;;;;;;;;;5091986;28;20043;-75
2021/11/26 07:43:06;;;;;;;14.82;3.35;;;;;;;;;;5078220;28;20068;-77
2021/11/26 07:45:32;;;;;;;14.68;3.58;;;;;;;;;;5079143;28;20043;-75
2021/11/26 07:47:59;;;;;;;10.48;2.83;;;;;;;;;;5082385;28;20028;-77
2021/11/26 07:50:25;;;;;;;8.88;3.03;;;;;;;;;;5088044;28;20040;-76
2021/11/26 07:52:51;;;;;;;7.88;2.85;;;;;;;;;;5101856;28;20031;-74
2021/11/26 07:55:17;;;;;;;13.50;4.28;;;;;;;;;;5089178;28;20020;-76
2021/11/26 07:57:44;;;;;;;9.55;2.78;;;;;;;;;;5096813;28;20025;-74
2021/11/26 08:00:11;;;;;;;11.93;2.60;;;;;;;;;;5104654;28;20024;-75
2021/11/26 08:02:37;;;;;;;6.95;3.25;;;;;;;;;;5101318;28;20040;-76
2021/11/26 08:05:03;;;;;;;11.90;2.85;;;;;;;;;;5087013;28;20063;-77
2021/11/26 08:07:30;;;;;;;8.20;2.53;;;;;;;;;;5085133;28;20028;-77
2021/11/26 08:09:56;;;;;;;12.20;2.90;;;;;;;;;;5100058;28;20024;-76
2021/11/26 08:12:22;;;;;;;10.43;3.63;;;;;;;;;;5094553;28;20043;-77
2021/11/26 08:14:51;;;;;;;10.73;3.45;;;;;;;;;;5093684;28;20054;-76
2021/11/26 08:17:17;;;;;;;10.80;3.63;;;;;;;;;;5101028;28;20019;-76
2021/11/26 08:19:43;;;;;;;10.65;2.97;;;;;;;;;;5102997;28;20020;-75
2021/11/26 08:22:11;;;;;;;11.10;3.42;;;;;;;;;;5102967;28;20024;-76
2021/11/26 08:24:38;;;;;;;8.93;3.30;;;;;;;;;;5093408;28;20466;-75
2021/11/26 08:27:04;;;;;;;9.50;2.88;;;;;;;;;;5092863;28;20064;-75
2021/11/26 08:29:30;;;;;;;9.48;3.13;;;;;;;;;;5086867;28;20025;-77
2021/11/26 08:31:56;;;;;;;12.68;3.05;;;;;;;;;;5086592;28;20077;-76
2021/11/26 08:34:22;;;;;;;12.02;4.53;;;;;;;;;;5079043;28;20032;-74
2021/11/26 08:36:48;;;;;;;15.80;3.45;;;;;;;;;;5076248;28;20434;-76
2021/11/26 08:39:14;;;;;;;11.63;3.50;;;;;;;;;;5093718;28;20028;-75
2021/11/26 08:41:41;;;;;;;8.70;3.67;;;;;;;;;;5098863;28;20028;-77
2021/11/26 08:44:07;;;;;;;13.13;2.65;;;;;;;;;;5092580;28;20052;-77
2021/11/26 08:46:34;;;;;;;18.80;3.25;;;;;;;;;;5081389;28;20499;-76
2021/11/26 08:49:00;;;;;;;11.95;3.42;;;;;;;;;;5073481;28;20033;-74
2021/11/26 08:51:28;;;;;;;13.68;3.92;;;;;;;;;;5082690;28;20040;-77
2021/11/26 08:53:54;;;;;;;12.10;3.20;;;;;;;;;;5093979;28;20511;-74
2021/11/26 08:56:22;;;;;;;9.82;3.97;;;;;;;;;;5093634;28;20472;-77
2021/11/26 08:58:48;;;;;;;11.40;3.65;;;;;;;;;;5101048;28;20016;-77
2021/11/26 09:01:15;;;;;;;11.98;4.07;;;;;;;;;;5101528;28;20031;-76
2021/11/26 09:03:44;;;;;;;8.70;3.00;;;;;;;;;;5095851;28;20024;-77
2021/11/26 09:06:26;;;;;;;;;;;;;;;;;;;;;
2021/11/26 09:08:53;;;;;;;12.98;3.08;;;;;;;;;;5098804;28;20031;-77
2021/11/26 09:11:19;;;;;;;12.60;3.10;;;;;;;;;;5091887;28;20036;-76
2021/11/26 09:13:45;;;;;;;12.45;3.60;;;;;;;;;;5070901;28;20040;-73
2021/11/26 09:16:12;;;;;;;10.50;4.85;;;;;;;;;;5094353;28;20107;-75
2021/11/26 09:18:39;;;;;;;15.68;4.05;;;;;;;;;;5083707;28;20443;-74
2021/11/26 09:21:05;;;;;;;13.10;3.42;;;;;;;;;;5092350;28;20095;-75
2021/11/26 09:23:32;;;;;;;13.88;3.40;;;;;;;;;;5081036;28;20206;-77
2021/11/26 09:25:58;;;;;;;11.65;3.38;;;;;;;;;;5088539;28;20035;-77
2021/11/26 09:28:24;;;;;;;10.90;3.63;;;;;;;;;;5087448;28;20055;-76
2021/11/26 09:30:51;;;;;;;9.65;3.50;;;;;;;;;;5073752;28;20029;-77
2021/11/26 09:33:20;;;;;;;13.43;3.22;;;;;;;;;;5080423;28;20091;-76
2021/11/26 09:35:47;;;;;;;12.77;3.75;;;;;;;;;;5096832;28;20024;-74
2021/11/26 09:38:13;;;;;;;10.60;3.80;;;;;;;;;;5093084;28;20059;-78
2021/11/26 09:40:40;;;;;;;13.52;4.10;;;;;;;;;;5066168;28;20087;-79
2021/11/26 09:43:15;;;;;;;12.60;3.50;;;;;;;;;;5083005;28;20044;-75
2021/11/26 09:45:42;;;;;;;6.05;2.95;;;;;;;;;;5094599;28;20474;-75
2021/11/26 09:48:08;;;;;;;14.55;3.63;;;;;;;;;;5100361;28;20106;-74
2021/11/26 09:50:34;;;;;;;12.63;4.30;;;;;;;;;;5093855;28;20103;-76
2021/11/26 09:53:12;;;;;;;11.30;3.38;;;;;;;;;;5096256;28;20036;-76
2021/11/26 09:55:38;;;;;;;12.65;3.30;;;;;;;;;;5101030;28;20028;-75
2021/11/26 09:58:13;;;;;;;11.80;4.63;;;;;;;;;;5086937;28;20065;-74
2021/11/26 10:00:40;;;;;;;8.73;3.45;;;;;;;;;;5084013;28;20016;-76
2021/11/26 10:03:06;;;;;;;20.48;4.72;;;;;;;;;;5096890;28;20036;-77
2021/11/26 10:05:33;;;;;;;16.35;4.38;;;;;;;;;;5088631;28;20028;-75
2021/11/26 10:07:59;;;;;;;13.63;4.75;;;;;;;;;;5090372;28;20069;-77
2021/11/26 10:10:27;;;;;;;13.27;3.90;;;;;;;;;;5090900;28;20036;-76
2021/11/26 10:13:19;;;;;;;12.20;4.13;;;;;;;;;;5095059;28;20053;-76
2021/11/26 10:15:46;;;;;;;14.43;4.25;;;;;;;;;;5061914;28;20032;-77
2021/11/26 10:18:12;;;;;;;11.90;3.40;;;;;;;;;;5103661;28;20083;-78
2021/11/26 10:20:51;;;;;;;8.55;2.75;;;;;;;;;;5089613;28;20023;-75
2021/11/26 10:23:18;;;;;;;5.35;2.60;;;;;;;;;;5092572;28;20027;-76
2021/11/26 10:25:44;;;;;;;9.35;2.60;;;;;;;;;;5102141;28;20020;-77
2021/11/26 10:28:11;;;;;;;10.23;2.80;;;;;;;;;;5100903;28;20028;-76
2021/11/26 10:30:39;;;;;;;9.82;3.28;;;;;;;;;;5078420;28;20047;-77
2021/11/26 10:33:05;;;;;;;11.80;3.78;;;;;;;;;;5083592;28;20471;-76
2021/11/26 10:35:33;;;;;;;16.10;5.28;;;;;;;;;;5097274;28;20027;-77
2021/11/26 10:38:07;;;;;;;15.85;5.55;;;;;;;;;;5095320;28;20024;-75
2021/11/26 10:40:37;;;;;;;13.52;4.03;;;;;;;;;;5064976;28;20047;-77
2021/11/26 10:43:05;;;;;;;16.52;4.53;;;;;;;;;;5033666;28;20045;-75
2021/11/26 10:45:55;;;;;;;22.92;6.07;;;;;;;;;;5047109;28;20017;-76
2021/11/26 10:49:06;;;;;;;15.32;5.05;;;;;;;;;;5035048;28;20026;-75
2021/11/26 10:59:33;;;;;;;14.13;3.38;;;;;;;;;;5056553;28;20053;-76
2021/11/26 11:01:59;;;;;;;13.82;3.38;;;;;;;;;;5054598;28;20364;-76
2021/11/26 11:04:29;;;;;;;14.23;3.63;;;;;;;;;;5054828;28;20029;-75
2021/11/26 11:07:05;;;;;;;10.77;2.80;;;;;;;;;;5059696;28;20395;-77
2021/11/26 11:09:48;;;;;;;11.27;3.40;;;;;;;;;;5057843;28;20017;-76
2021/11/26 11:12:15;;;;;;;12.43;3.13;;;;;;;;;;5057366;28;20056;-77
2021/11/26 11:14:52;;;;;;;12.13;3.10;;;;;;;;;;5059537;28;20465;-77
2021/11/26 11:17:19;;;;;;;13.07;4.00;;;;;;;;;;5059541;28;20390;-76
2021/11/26 11:19:46;;;;;;;8.52;3.33;;;;;;;;;;5058177;28;20024;-75
2021/11/26 11:22:12;;;;;;;10.75;3.15;;;;;;;;;;5057488;28;20033;-78
2021/11/26 11:24:39;;;;;;;10.38;3.15;;;;;;;;;;5055721;28;20029;-74
2021/11/26 11:27:05;;;;;;;8.95;2.70;;;;;;;;;;5057202;28;20040;-76
2021/11/26 11:29:34;;;;;;;10.52;3.63;;;;;;;;;;5055281;28;20025;-75
2021/11/26 11:32:01;;;;;;;8.77;2.63;;;;;;;;;;5055858;28;20800;-74
2021/11/26 11:34:28;;;;;;;10.57;2.85;;;;;;;;;;5049996;28;20028;-76
2021/11/26 11:36:56;;;;;;;13.35;2.88;;;;;;;;;;5056121;28;20036;-74
2021/11/26 11:39:22;;;;;;;8.13;3.13;;;;;;;;;;5060919;28;20176;-75
2021/11/26 11:41:56;;;;;;;8.70;2.58;;;;;;;;;;5060016;28;20021;-74
2021/11/26 11:44:27;;;;;;;8.50;2.47;;;;;;;;;;5054151;28;20089;-75
2021/11/26 11:47:24;;;;;;;4.63;2.47;;;;;;;;;;5064132;28;20032;-78
2021/11/26 11:49:50;;;;;;;8.40;2.78;;;;;;;;;;5062586;28;20021;-74
2021/11/26 11:52:16;;;;;;;4.90;2.42;;;;;;;;;;5050797;28;20029;-75
2021/11/26 11:54:44;;;;;;;6.57;2.55;;;;;;;;;;5067511;28;20063;-75
2021/11/26 11:57:20;;;;;;;7.80;3.15;;;;;;;;;;5067049;28;20128;-75
2021/11/26 11:59:49;;;;;;;10.32;5.18;;;;;;;;;;5069508;28;20017;-75
2021/11/26 12:02:22;;;;;;;9.13;3.75;;;;;;;;;;5050279;28;20036;-75
2021/11/26 12:04:49;;;;;;;7.15;2.50;;;;;;;;;;5063474;28;20491;-74
2021/11/26 12:07:50;;;;;;;21.20;4.03;;;;;;;;;;5063056;28;20059;-75
2021/11/26 12:10:17;;;;;;;6.65;3.65;;;;;;;;;;5053008;28;20026;-76
2021/11/26 12:12:58;;;;;;;9.32;3.88;;;;;;;;;;5043353;28;20136;-76
2021/11/26 12:15:34;;;;;;;4.88;2.83;;;;;;;;;;5039689;28;20029;-77
2021/11/26 12:18:08;;;;;;;7.47;2.72;;;;;;;;;;5038138;28;20025;-75
2021/11/26 12:20:35;;;;;;;12.13;5.38;;;;;;;;;;5055701;28;20024;-76
2021/11/26 12:23:13;;;;;;;4.05;2.08;;;;;;;;;;5052365;28;20026;-76
2021/11/26 12:26:02;;;;;;;14.45;5.43;;;;;;;;;;5065603;28;20017;-75
2021/11/26 12:28:42;;;;;;;6.43;3.67;;;;;;;;;;5061131;28;20410;-76
2021/11/26 12:31:09;;;;;;;8.93;4.30;;;;;;;;;;5059306;28;20021;-77
2021/11/26 12:33:36;;;;;;;14.82;6.18;;;;;;;;;;5050911;28;20029;-76
2021/11/26 12:36:06;;;;;;;9.10;4.13;;;;;;;;;;5050062;28;20403;-76
2021/11/26 12:38:41;;;;;;;6.35;2.95;;;;;;;;;;5037071;28;20037;-74
2021/11/26 12:41:08;;;;;;;9.50;4.15;;;;;;;;;;5045598;28;20057;-77
2021/11/26 12:43:48;;;;;;;5.93;2.42;;;;;;;;;;5056129;28;20089;-75
2021/11/26 12:46:28;;;;;;;4.65;2.58;;;;;;;;;;5065780;28;20479;-75
2021/11/26 12:51:46;;;;;;;4.43;2.20;;;;;;;;;;5056585;28;20438;-77
2021/11/26 12:54:41;;;;;;;4.68;1.80;;;;;;;;;;5053306;28;20028;-74
2021/11/26 12:57:16;;;;;;;8.00;2.20;;;;;;;;;;5041058;28;20037;-76
2021/11/26 12:59:44;;;;;;;5.68;2.08;;;;;;;;;;5059564;28;20342;-75
2021/11/26 13:02:11;;;;;;;3.28;1.95;;;;;;;;;;5068886;28;20148;-76
2021/11/26 13:04:50;;;;;;;5.22;1.80;;;;;;;;;;5059527;28;20460;-74
2021/11/26 13:07:26;;;;;;;4.00;2.38;;;;;;;;;;5055581;28;20090;-77
2021/11/26 13:09:54;;;;;;;4.60;1.90;;;;;;;;;;5047326;28;20033;-76
2021/11/26 13:12:21;;;;;;;6.40;2.88;;;;;;;;;;5058971;28;20029;-78
2021/11/26 13:14:52;;;;;;;3.15;2.10;;;;;;;;;;5058959;28;20109;-75
2021/11/26 13:17:20;;;;;;;4.50;2.10;;;;;;;;;;5058168;28;20479;-77
2021/11/26 13:20:08;;;;;;;3.60;1.88;;;;;;;;;;5058536;28;20029;-75
2021/11/26 13:22:50;;;;;;;3.63;2.70;;;;;;;;;;5051192;28;20024;-76
2021/11/26 13:25:19;;;;;;;4.97;3.25;;;;;;;;;;5056032;28;20040;-76
2021/11/26 13:27:46;;;;;;;5.75;2.20;;;;;;;;;;5056888;28;20025;-75
2021/11/26 13:30:16;;;;;;;8.45;3.10;;;;;;;;;;5048160;28;20041;-76
2021/11/26 13:32:43;;;;;;;4.38;2.30;;;;;;;;;;5054105;28;20029;-76
2021/11/26 13:35:10;;;;;;;4.45;2.42;;;;;;;;;;5057992;28;20495;-76
2021/11/26 13:37:36;;;;;;;4.32;2.22;;;;;;;;;;5057532;28;20033;-79
2021/11/26 13:40:02;;;;;;;5.32;2.63;;;;;;;;;;5056635;28;20032;-79
2021/11/26 13:42:28;;;;;;;4.20;2.45;;;;;;;;;;5056056;28;20031;-77
2021/11/26 13:44:56;;;;;;;3.72;2.58;;;;;;;;;;5042812;28;20049;-76
2021/11/26 13:47:23;;;;;;;4.55;2.78;;;;;;;;;;5037990;28;20037;-77
2021/11/26 13:49:52;;;;;;;5.25;2.40;;;;;;;;;;5039423;28;20092;-76
2021/11/26 13:52:23;;;;;;;6.57;2.85;;;;;;;;;;5053317;28;20380;-78
2021/11/26 13:54:50;;;;;;;3.30;2.08;;;;;;;;;;5059091;28;20029;-79
2021/11/26 13:57:26;;;;;;;4.13;2.10;;;;;;;;;;5051931;28;20102;-74
2021/11/26 14:00:01;;;;;;;5.68;2.50;;;;;;;;;;5067390;28;20059;-75
2021/11/26 14:02:27;;;;;;;4.40;2.78;;;;;;;;;;5067159;28;20052;-74
2021/11/26 14:04:54;;;;;;;4.82;1.90;;;;;;;;;;5067320;28;20028;-75
2021/11/26 14:07:22;;;;;;;4.88;2.00;;;;;;;;;;5064029;28;20032;-74
2021/11/26 14:09:52;;;;;;;6.90;2.90;;;;;;;;;;5060147;28;20116;-75
2021/11/26 14:12:19;;;;;;;4.82;2.53;;;;;;;;;;5057040;28;20035;-76
2021/11/26 14:14:47;;;;;;;2.92;2.10;;;;;;;;;;5066479;28;20033;-74
2021/11/26 14:17:13;;;;;;;3.60;2.40;;;;;;;;;;5066709;28;20081;-75
2021/11/26 14:19:42;;;;;;;4.70;2.53;;;;;;;;;;5067264;28;20036;-75
2021/11/26 14:22:10;;;;;;;5.95;2.17;;;;;;;;;;5066996;28;20021;-75
2021/11/26 14:24:38;;;;;;;5.13;2.45;;;;;;;;;;5066683;28;20033;-75
2021/11/26 14:27:04;;;;;;;4.78;2.15;;;;;;;;;;5048515;28;20025;-73
2021/11/26 14:29:30;;;;;;;11.32;3.10;;;;;;;;;;5067840;28;20021;-74
2021/11/26 14:31:57;;;;;;;4.40;2.30;;;;;;;;;;5067816;28;20025;-74
2021/11/26 14:34:23;;;;;;;7.22;2.95;;;;;;;;;;5066964;28;20025;-74
2021/11/26 14:36:50;;;;;;;4.57;2.78;;;;;;;;;;5067110;28;20025;-75
2021/11/26 14:39:17;;;;;;;4.25;2.70;;;;;;;;;;5067586;28;20021;-74
2021/11/26 14:41:44;;;;;;;3.38;2.17;;;;;;;;;;5067736;28;20037;-75
2021/11/26 14:44:15;;;;;;;6.57;2.80;;;;;;;;;;5067206;28;20500;-74
2021/11/26 14:46:56;;;;;;;5.85;3.25;;;;;;;;;;5066476;28;20021;-74
2021/11/26 14:49:34;;;;;;;7.68;3.55;;;;;;;;;;5063136;28;20028;-75
2021/11/26 14:52:05;;;;;;;10.95;4.20;;;;;;;;;;5067074;28;20024;-74
2021/11/26 14:54:31;;;;;;;6.82;3.97;;;;;;;;;;5067017;28;20025;-74